sensor_id;sensor_type;location;lat;lon;timestamp;pressure;altitude;pressure_sealevel;temperature
66403;BMP180;53212;52.112;5.144;2024-01-11T00:00:42;103267.80;;;-4.80
66403;BMP180;53212;52.112;5.144;2024-01-11T00:03:08;103266.20;;;-4.74
66403;BMP180;53212;52.112;5.144;2024-01-11T00:05:33;103264.80;;;-4.80
66403;BMP180;53212;52.112;5.144;2024-01-11T00:07:59;103268.40;;;-4.80
66403;BMP180;53212;52.112;5.144;2024-01-11T00:10:24;103268.40;;;-4.80
66403;BMP180;53212;52.112;5.144;2024-01-11T00:12:50;103269.20;;;-4.80
66403;BMP180;53212;52.112;5.144;2024-01-11T00:15:15;103266.20;;;-4.90
66403;BMP180;53212;52.112;5.144;2024-01-11T00:17:41;103268.00;;;-4.90
66403;BMP180;53212;52.112;5.144;2024-01-11T00:20:07;103272.40;;;-4.92
66403;BMP180;53212;52.112;5.144;2024-01-11T00:22:32;103280.00;;;-4.98
66403;BMP180;53212;52.112;5.144;2024-01-11T00:24:58;103273.20;;;-5.00
66403;BMP180;53212;52.112;5.144;2024-01-11T00:27:23;103275.00;;;-5.00
66403;BMP180;53212;52.112;5.144;2024-01-11T00:29:49;103269.80;;;-5.00
66403;BMP180;53212;52.112;5.144;2024-01-11T00:32:14;103264.80;;;-5.10
66403;BMP180;53212;52.112;5.144;2024-01-11T00:34:39;103265.80;;;-5.10
66403;BMP180;53212;52.112;5.144;2024-01-11T00:37:05;103265.00;;;-5.10
66403;BMP180;53212;52.112;5.144;2024-01-11T00:39:30;103263.60;;;-5.10
66403;BMP180;53212;52.112;5.144;2024-01-11T00:41:56;103264.40;;;-5.10
66403;BMP180;53212;52.112;5.144;2024-01-11T00:44:21;103272.20;;;-5.10
66403;BMP180;53212;52.112;5.144;2024-01-11T00:46:47;103268.40;;;-5.10
66403;BMP180;53212;52.112;5.144;2024-01-11T00:49:12;103264.40;;;-5.10
66403;BMP180;53212;52.112;5.144;2024-01-11T00:51:38;103264.80;;;-5.00
66403;BMP180;53212;52.112;5.144;2024-01-11T00:54:03;103265.00;;;-5.00
66403;BMP180;53212;52.112;5.144;2024-01-11T00:56:29;103257.60;;;-5.00
66403;BMP180;53212;52.112;5.144;2024-01-11T00:58:54;103257.60;;;-5.04
66403;BMP180;53212;52.112;5.144;2024-01-11T01:01:19;103261.80;;;-5.10
66403;BMP180;53212;52.112;5.144;2024-01-11T01:03:45;103267.00;;;-5.10
66403;BMP180;53212;52.112;5.144;2024-01-11T01:06:10;103270.00;;;-5.10
66403;BMP180;53212;52.112;5.144;2024-01-11T01:08:36;103269.60;;;-5.10
66403;BMP180;53212;52.112;5.144;2024-01-11T01:11:01;103273.60;;;-5.16
66403;BMP180;53212;52.112;5.144;2024-01-11T01:13:27;103273.00;;;-5.20
66403;BMP180;53212;52.112;5.144;2024-01-11T01:15:52;103277.60;;;-5.26
66403;BMP180;53212;52.112;5.144;2024-01-11T01:18:18;103277.20;;;-5.30
66403;BMP180;53212;52.112;5.144;2024-01-11T01:20:43;103270.40;;;-5.30
66403;BMP180;53212;52.112;5.144;2024-01-11T01:23:09;103280.40;;;-5.30
66403;BMP180;53212;52.112;5.144;2024-01-11T01:25:34;103286.20;;;-5.40
66403;BMP180;53212;52.112;5.144;2024-01-11T01:28:00;103287.40;;;-5.40
66403;BMP180;53212;52.112;5.144;2024-01-11T01:30:26;103288.60;;;-5.40
66403;BMP180;53212;52.112;5.144;2024-01-11T01:32:53;103285.40;;;-5.38
66403;BMP180;53212;52.112;5.144;2024-01-11T01:35:19;103291.00;;;-5.40
66403;BMP180;53212;52.112;5.144;2024-01-11T01:37:44;103290.40;;;-5.40
66403;BMP180;53212;52.112;5.144;2024-01-11T01:40:11;103293.80;;;-5.40
66403;BMP180;53212;52.112;5.144;2024-01-11T01:42:42;103297.60;;;-5.40
66403;BMP180;53212;52.112;5.144;2024-01-11T01:45:09;103292.80;;;-5.40
66403;BMP180;53212;52.112;5.144;2024-01-11T01:47:35;103292.00;;;-5.46
66403;BMP180;53212;52.112;5.144;2024-01-11T01:50:01;103299.60;;;-5.50
66403;BMP180;53212;52.112;5.144;2024-01-11T01:52:27;103291.60;;;-5.50
66403;BMP180;53212;52.112;5.144;2024-01-11T01:54:52;103295.80;;;-5.60
66403;BMP180;53212;52.112;5.144;2024-01-11T01:57:19;103297.20;;;-5.60
66403;BMP180;53212;52.112;5.144;2024-01-11T01:59:46;103296.40;;;-5.68
66403;BMP180;53212;52.112;5.144;2024-01-11T02:02:15;103293.20;;;-5.70
66403;BMP180;53212;52.112;5.144;2024-01-11T02:04:41;103295.00;;;-5.74
66403;BMP180;53212;52.112;5.144;2024-01-11T02:07:06;103299.20;;;-5.80
66403;BMP180;53212;52.112;5.144;2024-01-11T02:09:33;103300.80;;;-5.76
66403;BMP180;53212;52.112;5.144;2024-01-11T02:11:59;103299.80;;;-5.70
66403;BMP180;53212;52.112;5.144;2024-01-11T02:14:26;103294.40;;;-5.68
66403;BMP180;53212;52.112;5.144;2024-01-11T02:16:51;103305.00;;;-5.62
66403;BMP180;53212;52.112;5.144;2024-01-11T02:19:18;103306.00;;;-5.68
66403;BMP180;53212;52.112;5.144;2024-01-11T02:21:46;103310.40;;;-5.70
66403;BMP180;53212;52.112;5.144;2024-01-11T02:24:13;103309.80;;;-5.70
66403;BMP180;53212;52.112;5.144;2024-01-11T02:27:00;103311.00;;;-5.70
66403;BMP180;53212;52.112;5.144;2024-01-11T02:29:27;103307.60;;;-5.76
66403;BMP180;53212;52.112;5.144;2024-01-11T02:31:56;103309.80;;;-5.80
66403;BMP180;53212;52.112;5.144;2024-01-11T02:34:26;103296.40;;;-5.80
66403;BMP180;53212;52.112;5.144;2024-01-11T02:36:53;103298.40;;;-5.80
66403;BMP180;53212;52.112;5.144;2024-01-11T02:39:22;103300.40;;;-5.82
66403;BMP180;53212;52.112;5.144;2024-01-11T02:41:51;103297.20;;;-5.86
66403;BMP180;53212;52.112;5.144;2024-01-11T02:44:16;103294.40;;;-5.86
66403;BMP180;53212;52.112;5.144;2024-01-11T02:46:42;103296.20;;;-5.80
66403;BMP180;53212;52.112;5.144;2024-01-11T02:49:08;103295.00;;;-5.80
66403;BMP180;53212;52.112;5.144;2024-01-11T02:51:33;103295.80;;;-5.80
66403;BMP180;53212;52.112;5.144;2024-01-11T02:53:59;103291.80;;;-5.80
66403;BMP180;53212;52.112;5.144;2024-01-11T02:56:24;103291.00;;;-5.80
66403;BMP180;53212;52.112;5.144;2024-01-11T02:58:50;103294.00;;;-5.80
66403;BMP180;53212;52.112;5.144;2024-01-11T03:01:15;103296.40;;;-5.80
66403;BMP180;53212;52.112;5.144;2024-01-11T03:03:41;103288.80;;;-5.88
66403;BMP180;53212;52.112;5.144;2024-01-11T03:06:07;103285.80;;;-5.90
66403;BMP180;53212;52.112;5.144;2024-01-11T03:08:33;103295.40;;;-6.00
66403;BMP180;53212;52.112;5.144;2024-01-11T03:10:58;103296.80;;;-6.00
66403;BMP180;53212;52.112;5.144;2024-01-11T03:13:23;103292.80;;;-6.00
66403;BMP180;53212;52.112;5.144;2024-01-11T03:15:49;103294.60;;;-6.02
66403;BMP180;53212;52.112;5.144;2024-01-11T03:18:14;103289.00;;;-6.02
66403;BMP180;53212;52.112;5.144;2024-01-11T03:20:40;103296.00;;;-6.00
66403;BMP180;53212;52.112;5.144;2024-01-11T03:23:05;103300.20;;;-6.00
66403;BMP180;53212;52.112;5.144;2024-01-11T03:25:31;103302.60;;;-5.96
66403;BMP180;53212;52.112;5.144;2024-01-11T03:27:57;103309.20;;;-6.00
66403;BMP180;53212;52.112;5.144;2024-01-11T03:30:23;103308.00;;;-6.00
66403;BMP180;53212;52.112;5.144;2024-01-11T03:32:49;103306.40;;;-6.00
66403;BMP180;53212;52.112;5.144;2024-01-11T03:35:15;103317.40;;;-6.06
66403;BMP180;53212;52.112;5.144;2024-01-11T03:37:40;103317.40;;;-6.10
66403;BMP180;53212;52.112;5.144;2024-01-11T03:40:06;103311.80;;;-6.10
66403;BMP180;53212;52.112;5.144;2024-01-11T03:42:32;103310.00;;;-6.10
66403;BMP180;53212;52.112;5.144;2024-01-11T03:44:57;103306.40;;;-6.10
66403;BMP180;53212;52.112;5.144;2024-01-11T03:47:23;103307.00;;;-6.10
66403;BMP180;53212;52.112;5.144;2024-01-11T03:49:48;103312.60;;;-6.02
66403;BMP180;53212;52.112;5.144;2024-01-11T03:52:14;103309.00;;;-6.02
66403;BMP180;53212;52.112;5.144;2024-01-11T03:54:39;103315.00;;;-6.02
66403;BMP180;53212;52.112;5.144;2024-01-11T03:57:05;103310.20;;;-6.10
66403;BMP180;53212;52.112;5.144;2024-01-11T03:59:31;103302.40;;;-6.10
66403;BMP180;53212;52.112;5.144;2024-01-11T04:01:59;103304.00;;;-6.18
66403;BMP180;53212;52.112;5.144;2024-01-11T04:04:25;103308.80;;;-6.20
66403;BMP180;53212;52.112;5.144;2024-01-11T04:06:51;103306.40;;;-6.30
66403;BMP180;53212;52.112;5.144;2024-01-11T04:09:17;103319.60;;;-6.30
66403;BMP180;53212;52.112;5.144;2024-01-11T04:11:43;103322.80;;;-6.30
66403;BMP180;53212;52.112;5.144;2024-01-11T04:14:08;103331.80;;;-6.30
66403;BMP180;53212;52.112;5.144;2024-01-11T04:16:34;103337.40;;;-6.30
66403;BMP180;53212;52.112;5.144;2024-01-11T04:19:04;103333.00;;;-6.30
66403;BMP180;53212;52.112;5.144;2024-01-11T04:21:29;103339.20;;;-6.30
66403;BMP180;53212;52.112;5.144;2024-01-11T04:23:57;103340.40;;;-6.30
66403;BMP180;53212;52.112;5.144;2024-01-11T04:26:23;103336.00;;;-6.38
66403;BMP180;53212;52.112;5.144;2024-01-11T04:28:49;103342.00;;;-6.38
66403;BMP180;53212;52.112;5.144;2024-01-11T04:31:17;103334.80;;;-6.34
66403;BMP180;53212;52.112;5.144;2024-01-11T04:33:43;103344.00;;;-6.30
66403;BMP180;53212;52.112;5.144;2024-01-11T04:36:10;103344.20;;;-6.30
66403;BMP180;53212;52.112;5.144;2024-01-11T04:38:36;103352.80;;;-6.30
66403;BMP180;53212;52.112;5.144;2024-01-11T04:41:13;103360.80;;;-6.30
66403;BMP180;53212;52.112;5.144;2024-01-11T04:43:43;103359.20;;;-6.38
66403;BMP180;53212;52.112;5.144;2024-01-11T04:46:16;103349.60;;;-6.40
66403;BMP180;53212;52.112;5.144;2024-01-11T04:48:43;103358.40;;;-6.40
66403;BMP180;53212;52.112;5.144;2024-01-11T04:51:09;103350.80;;;-6.40
66403;BMP180;53212;52.112;5.144;2024-01-11T04:53:41;103357.00;;;-6.32
66403;BMP180;53212;52.112;5.144;2024-01-11T04:56:09;103364.40;;;-6.34
66403;BMP180;53212;52.112;5.144;2024-01-11T04:58:36;103367.60;;;-6.38
66403;BMP180;53212;52.112;5.144;2024-01-11T05:01:04;103356.00;;;-6.40
66403;BMP180;53212;52.112;5.144;2024-01-11T05:03:30;103354.40;;;-6.48
66403;BMP180;53212;52.112;5.144;2024-01-11T05:05:57;103359.80;;;-6.50
66403;BMP180;53212;52.112;5.144;2024-01-11T05:08:23;103345.00;;;-6.50
66403;BMP180;53212;52.112;5.144;2024-01-11T05:10:49;103355.40;;;-6.50
66403;BMP180;53212;52.112;5.144;2024-01-11T05:13:15;103361.00;;;-6.50
66403;BMP180;53212;52.112;5.144;2024-01-11T05:15:41;103348.20;;;-6.50
66403;BMP180;53212;52.112;5.144;2024-01-11T05:18:06;103344.40;;;-6.50
66403;BMP180;53212;52.112;5.144;2024-01-11T05:20:32;103342.60;;;-6.50
66403;BMP180;53212;52.112;5.144;2024-01-11T05:22:57;103346.00;;;-6.50
66403;BMP180;53212;52.112;5.144;2024-01-11T05:25:23;103344.20;;;-6.54
66403;BMP180;53212;52.112;5.144;2024-01-11T05:27:48;103352.80;;;-6.60
66403;BMP180;53212;52.112;5.144;2024-01-11T05:30:14;103342.80;;;-6.60
66403;BMP180;53212;52.112;5.144;2024-01-11T05:32:39;103341.20;;;-6.60
66403;BMP180;53212;52.112;5.144;2024-01-11T05:35:05;103342.00;;;-6.58
66403;BMP180;53212;52.112;5.144;2024-01-11T05:37:30;103338.40;;;-6.52
66403;BMP180;53212;52.112;5.144;2024-01-11T05:39:56;103346.80;;;-6.60
66403;BMP180;53212;52.112;5.144;2024-01-11T05:42:23;103338.00;;;-6.60
66403;BMP180;53212;52.112;5.144;2024-01-11T05:44:49;103330.00;;;-6.60
66403;BMP180;53212;52.112;5.144;2024-01-11T05:47:14;103322.60;;;-6.76
66403;BMP180;53212;52.112;5.144;2024-01-11T05:49:40;103320.00;;;-6.82
66403;BMP180;53212;52.112;5.144;2024-01-11T05:52:06;103323.20;;;-6.90
66403;BMP180;53212;52.112;5.144;2024-01-11T05:54:31;103349.40;;;-6.98
66403;BMP180;53212;52.112;5.144;2024-01-11T05:56:57;103346.80;;;-6.96
66403;BMP180;53212;52.112;5.144;2024-01-11T05:59:24;103344.60;;;-6.90
66403;BMP180;53212;52.112;5.144;2024-01-11T06:01:49;103331.00;;;-6.90
66403;BMP180;53212;52.112;5.144;2024-01-11T06:04:14;103339.60;;;-7.00
66403;BMP180;53212;52.112;5.144;2024-01-11T06:06:40;103353.80;;;-7.00
66403;BMP180;53212;52.112;5.144;2024-01-11T06:09:06;103360.40;;;-7.00
66403;BMP180;53212;52.112;5.144;2024-01-11T06:11:31;103355.60;;;-7.00
66403;BMP180;53212;52.112;5.144;2024-01-11T06:13:57;103368.20;;;-6.94
66403;BMP180;53212;52.112;5.144;2024-01-11T06:16:23;103362.80;;;-6.92
66403;BMP180;53212;52.112;5.144;2024-01-11T06:18:48;103370.60;;;-6.96
66403;BMP180;53212;52.112;5.144;2024-01-11T06:21:14;103379.60;;;-6.92
66403;BMP180;53212;52.112;5.144;2024-01-11T06:23:40;103384.60;;;-6.90
66403;BMP180;53212;52.112;5.144;2024-01-11T06:26:07;103387.80;;;-6.80
66403;BMP180;53212;52.112;5.144;2024-01-11T06:28:33;103390.60;;;-6.80
66403;BMP180;53212;52.112;5.144;2024-01-11T06:30:58;103405.40;;;-6.80
66403;BMP180;53212;52.112;5.144;2024-01-11T06:33:24;103416.00;;;-6.70
66403;BMP180;53212;52.112;5.144;2024-01-11T06:35:49;103435.40;;;-6.70
66403;BMP180;53212;52.112;5.144;2024-01-11T06:38:15;103440.80;;;-6.70
66403;BMP180;53212;52.112;5.144;2024-01-11T06:40:41;103436.80;;;-6.62
66403;BMP180;53212;52.112;5.144;2024-01-11T06:43:06;103431.80;;;-6.60
66403;BMP180;53212;52.112;5.144;2024-01-11T06:45:32;103431.60;;;-6.62
66403;BMP180;53212;52.112;5.144;2024-01-11T06:47:57;103435.60;;;-6.70
66403;BMP180;53212;52.112;5.144;2024-01-11T06:50:23;103447.20;;;-6.70
66403;BMP180;53212;52.112;5.144;2024-01-11T06:52:48;103446.80;;;-6.62
66403;BMP180;53212;52.112;5.144;2024-01-11T06:55:14;103447.60;;;-6.60
66403;BMP180;53212;52.112;5.144;2024-01-11T06:57:39;103449.20;;;-6.60
66403;BMP180;53212;52.112;5.144;2024-01-11T07:00:06;103450.00;;;-6.60
66403;BMP180;53212;52.112;5.144;2024-01-11T07:02:32;103449.00;;;-6.60
66403;BMP180;53212;52.112;5.144;2024-01-11T07:04:58;103451.40;;;-6.60
66403;BMP180;53212;52.112;5.144;2024-01-11T07:07:23;103450.20;;;-6.60
66403;BMP180;53212;52.112;5.144;2024-01-11T07:09:49;103458.40;;;-6.60
66403;BMP180;53212;52.112;5.144;2024-01-11T07:12:14;103455.60;;;-6.60
66403;BMP180;53212;52.112;5.144;2024-01-11T07:14:40;103464.40;;;-6.58
66403;BMP180;53212;52.112;5.144;2024-01-11T07:17:05;103462.80;;;-6.52
66403;BMP180;53212;52.112;5.144;2024-01-11T07:19:31;103456.60;;;-6.60
66403;BMP180;53212;52.112;5.144;2024-01-11T07:21:56;103448.80;;;-6.60
66403;BMP180;53212;52.112;5.144;2024-01-11T07:24:22;103445.80;;;-6.60
66403;BMP180;53212;52.112;5.144;2024-01-11T07:26:47;103433.80;;;-6.66
66403;BMP180;53212;52.112;5.144;2024-01-11T07:29:14;103431.20;;;-6.70
66403;BMP180;53212;52.112;5.144;2024-01-11T07:31:39;103424.20;;;-6.74
66403;BMP180;53212;52.112;5.144;2024-01-11T07:34:04;103413.60;;;-6.80
66403;BMP180;53212;52.112;5.144;2024-01-11T07:36:30;103401.20;;;-6.80
66403;BMP180;53212;52.112;5.144;2024-01-11T07:38:56;103413.40;;;-6.80
66403;BMP180;53212;52.112;5.144;2024-01-11T07:41:22;103408.20;;;-6.80
66403;BMP180;53212;52.112;5.144;2024-01-11T07:43:47;103408.20;;;-6.70
66403;BMP180;53212;52.112;5.144;2024-01-11T07:46:13;103401.60;;;-6.68
66403;BMP180;53212;52.112;5.144;2024-01-11T07:48:39;103396.80;;;-6.70
66403;BMP180;53212;52.112;5.144;2024-01-11T07:51:04;103402.80;;;-6.70
66403;BMP180;53212;52.112;5.144;2024-01-11T07:53:30;103418.60;;;-6.50
66403;BMP180;53212;52.112;5.144;2024-01-11T07:55:57;103423.00;;;-6.40
66403;BMP180;53212;52.112;5.144;2024-01-11T07:58:23;103427.20;;;-6.30
66403;BMP180;53212;52.112;5.144;2024-01-11T08:00:49;103419.20;;;-6.20
66403;BMP180;53212;52.112;5.144;2024-01-11T08:03:15;103423.00;;;-6.10
66403;BMP180;53212;52.112;5.144;2024-01-11T08:05:41;103423.80;;;-6.02
66403;BMP180;53212;52.112;5.144;2024-01-11T08:08:08;103425.40;;;-5.96
66403;BMP180;53212;52.112;5.144;2024-01-11T08:10:34;103425.40;;;-5.90
66403;BMP180;53212;52.112;5.144;2024-01-11T08:13:00;103429.00;;;-5.80
66403;BMP180;53212;52.112;5.144;2024-01-11T08:15:25;103428.00;;;-5.80
66403;BMP180;53212;52.112;5.144;2024-01-11T08:17:51;103425.80;;;-5.70
66403;BMP180;53212;52.112;5.144;2024-01-11T08:20:16;103422.40;;;-5.80
66403;BMP180;53212;52.112;5.144;2024-01-11T08:22:42;103425.40;;;-5.80
66403;BMP180;53212;52.112;5.144;2024-01-11T08:25:17;103421.80;;;-5.70
66403;BMP180;53212;52.112;5.144;2024-01-11T08:27:42;103419.80;;;-5.70
66403;BMP180;53212;52.112;5.144;2024-01-11T08:30:08;103419.40;;;-5.60
66403;BMP180;53212;52.112;5.144;2024-01-11T08:32:34;103417.20;;;-5.66
66403;BMP180;53212;52.112;5.144;2024-01-11T08:35:14;103423.00;;;-5.54
66403;BMP180;53212;52.112;5.144;2024-01-11T08:37:39;103410.60;;;-5.50
66403;BMP180;53212;52.112;5.144;2024-01-11T08:40:06;103423.40;;;-5.40
66403;BMP180;53212;52.112;5.144;2024-01-11T08:42:32;103433.80;;;-5.30
66403;BMP180;53212;52.112;5.144;2024-01-11T08:45:00;103441.80;;;-5.30
66403;BMP180;53212;52.112;5.144;2024-01-11T08:47:35;103455.20;;;-5.20
66403;BMP180;53212;52.112;5.144;2024-01-11T08:50:01;103454.20;;;-5.18
66403;BMP180;53212;52.112;5.144;2024-01-11T08:52:26;103458.00;;;-5.10
66403;BMP180;53212;52.112;5.144;2024-01-11T08:54:52;103459.80;;;-5.10
66403;BMP180;53212;52.112;5.144;2024-01-11T08:57:17;103471.00;;;-5.10
66403;BMP180;53212;52.112;5.144;2024-01-11T08:59:43;103471.00;;;-5.10
66403;BMP180;53212;52.112;5.144;2024-01-11T09:02:08;103480.60;;;-5.10
66403;BMP180;53212;52.112;5.144;2024-01-11T09:04:34;103479.60;;;-5.00
66403;BMP180;53212;52.112;5.144;2024-01-11T09:06:59;103488.40;;;-5.00
66403;BMP180;53212;52.112;5.144;2024-01-11T09:09:25;103496.80;;;-4.92
66403;BMP180;53212;52.112;5.144;2024-01-11T09:11:50;103500.80;;;-4.90
66403;BMP180;53212;52.112;5.144;2024-01-11T09:14:16;103508.20;;;-4.90
66403;BMP180;53212;52.112;5.144;2024-01-11T09:16:41;103508.80;;;-4.90
66403;BMP180;53212;52.112;5.144;2024-01-11T09:19:07;103510.20;;;-4.80
66403;BMP180;53212;52.112;5.144;2024-01-11T09:21:33;103507.80;;;-4.70
66403;BMP180;53212;52.112;5.144;2024-01-11T09:23:58;103501.60;;;-4.70
66403;BMP180;53212;52.112;5.144;2024-01-11T09:26:24;103502.20;;;-4.60
66403;BMP180;53212;52.112;5.144;2024-01-11T09:28:49;103503.00;;;-4.50
66403;BMP180;53212;52.112;5.144;2024-01-11T09:31:15;103504.60;;;-4.40
66403;BMP180;53212;52.112;5.144;2024-01-11T09:33:40;103510.00;;;-4.40
66403;BMP180;53212;52.112;5.144;2024-01-11T09:36:08;103505.40;;;-4.30
66403;BMP180;53212;52.112;5.144;2024-01-11T09:38:34;103504.60;;;-4.20
66403;BMP180;53212;52.112;5.144;2024-01-11T09:41:07;103510.20;;;-4.08
66403;BMP180;53212;52.112;5.144;2024-01-11T09:43:36;103522.00;;;-3.96
66403;BMP180;53212;52.112;5.144;2024-01-11T09:46:06;103528.60;;;-3.80
66403;BMP180;53212;52.112;5.144;2024-01-11T09:48:37;103525.20;;;-3.64
66403;BMP180;53212;52.112;5.144;2024-01-11T09:51:08;103524.80;;;-3.42
66403;BMP180;53212;52.112;5.144;2024-01-11T09:53:38;103523.40;;;-3.30
66403;BMP180;53212;52.112;5.144;2024-01-11T09:56:09;103521.00;;;-3.10
66403;BMP180;53212;52.112;5.144;2024-01-11T09:58:35;103522.60;;;-3.00
66403;BMP180;53212;52.112;5.144;2024-01-11T10:01:03;103523.80;;;-3.00
66403;BMP180;53212;52.112;5.144;2024-01-11T10:03:32;103528.40;;;-2.90
66403;BMP180;53212;52.112;5.144;2024-01-11T10:05:58;103530.00;;;-2.90
66403;BMP180;53212;52.112;5.144;2024-01-11T10:08:25;103523.80;;;-2.84
66403;BMP180;53212;52.112;5.144;2024-01-11T10:10:50;103518.00;;;-2.80
66403;BMP180;53212;52.112;5.144;2024-01-11T10:13:16;103513.40;;;-2.80
66403;BMP180;53212;52.112;5.144;2024-01-11T10:15:43;103518.60;;;-2.80
66403;BMP180;53212;52.112;5.144;2024-01-11T10:18:09;103528.60;;;-2.74
66403;BMP180;53212;52.112;5.144;2024-01-11T10:20:34;103529.20;;;-2.70
66403;BMP180;53212;52.112;5.144;2024-01-11T10:23:02;103531.40;;;-2.60
66403;BMP180;53212;52.112;5.144;2024-01-11T10:25:28;103522.00;;;-2.50
66403;BMP180;53212;52.112;5.144;2024-01-11T10:27:54;103516.00;;;-2.50
66403;BMP180;53212;52.112;5.144;2024-01-11T10:30:19;103518.00;;;-2.40
66403;BMP180;53212;52.112;5.144;2024-01-11T10:32:47;103520.40;;;-2.32
66403;BMP180;53212;52.112;5.144;2024-01-11T10:35:14;103520.20;;;-2.30
66403;BMP180;53212;52.112;5.144;2024-01-11T10:37:40;103514.60;;;-2.30
66403;BMP180;53212;52.112;5.144;2024-01-11T10:40:08;103512.40;;;-2.20
66403;BMP180;53212;52.112;5.144;2024-01-11T10:42:43;103521.00;;;-2.10
66403;BMP180;53212;52.112;5.144;2024-01-11T10:45:17;103517.80;;;-2.04
66403;BMP180;53212;52.112;5.144;2024-01-11T10:47:51;103518.60;;;-1.96
66403;BMP180;53212;52.112;5.144;2024-01-11T10:50:21;103531.80;;;-1.80
66403;BMP180;53212;52.112;5.144;2024-01-11T10:55:37;103528.40;;;-1.60
66403;BMP180;53212;52.112;5.144;2024-01-11T10:58:04;103523.20;;;-1.50
66403;BMP180;53212;52.112;5.144;2024-01-11T11:00:31;103532.60;;;-1.40
66403;BMP180;53212;52.112;5.144;2024-01-11T11:02:59;103543.80;;;-1.40
66403;BMP180;53212;52.112;5.144;2024-01-11T11:05:27;103551.20;;;-1.30
66403;BMP180;53212;52.112;5.144;2024-01-11T11:07:54;103543.40;;;-1.30
66403;BMP180;53212;52.112;5.144;2024-01-11T11:10:21;103537.60;;;-1.20
66403;BMP180;53212;52.112;5.144;2024-01-11T11:12:48;103540.60;;;-1.20
66403;BMP180;53212;52.112;5.144;2024-01-11T11:15:15;103546.00;;;-1.10
66403;BMP180;53212;52.112;5.144;2024-01-11T11:17:42;103554.60;;;-1.10
66403;BMP180;53212;52.112;5.144;2024-01-11T11:20:10;103559.00;;;-1.02
66403;BMP180;53212;52.112;5.144;2024-01-11T11:22:42;103557.20;;;-1.04
66403;BMP180;53212;52.112;5.144;2024-01-11T11:25:24;103560.00;;;-1.08
66403;BMP180;53212;52.112;5.144;2024-01-11T11:27:50;103553.80;;;-1.04
66403;BMP180;53212;52.112;5.144;2024-01-11T11:30:19;103551.60;;;-1.00
66403;BMP180;53212;52.112;5.144;2024-01-11T11:32:45;103543.60;;;-1.00
66403;BMP180;53212;52.112;5.144;2024-01-11T11:35:11;103542.40;;;-1.00
66403;BMP180;53212;52.112;5.144;2024-01-11T11:37:37;103543.80;;;-0.90
66403;BMP180;53212;52.112;5.144;2024-01-11T11:40:13;103544.60;;;-0.90
66403;BMP180;53212;52.112;5.144;2024-01-11T11:42:39;103543.00;;;-0.80
66403;BMP180;53212;52.112;5.144;2024-01-11T11:45:07;103534.60;;;-0.70
66403;BMP180;53212;52.112;5.144;2024-01-11T11:47:36;103534.80;;;-0.60
66403;BMP180;53212;52.112;5.144;2024-01-11T11:50:07;103531.80;;;-0.50
66403;BMP180;53212;52.112;5.144;2024-01-11T11:52:34;103521.40;;;-0.40
66403;BMP180;53212;52.112;5.144;2024-01-11T11:55:01;103520.20;;;-0.40
66403;BMP180;53212;52.112;5.144;2024-01-11T11:57:28;103527.00;;;-0.40
66403;BMP180;53212;52.112;5.144;2024-01-11T11:59:57;103521.40;;;-0.40
66403;BMP180;53212;52.112;5.144;2024-01-11T12:02:30;103515.60;;;-0.30
66403;BMP180;53212;52.112;5.144;2024-01-11T12:04:56;103516.00;;;-0.28
66403;BMP180;53212;52.112;5.144;2024-01-11T12:07:22;103514.40;;;-0.20
66403;BMP180;53212;52.112;5.144;2024-01-11T12:09:51;103507.20;;;-0.20
66403;BMP180;53212;52.112;5.144;2024-01-11T12:12:17;103497.00;;;-0.10
66403;BMP180;53212;52.112;5.144;2024-01-11T12:14:46;103491.20;;;0.04
66403;BMP180;53212;52.112;5.144;2024-01-11T12:17:12;103481.00;;;0.20
66403;BMP180;53212;52.112;5.144;2024-01-11T12:19:38;103468.20;;;0.30
66403;BMP180;53212;52.112;5.144;2024-01-11T12:22:04;103467.60;;;0.40
66403;BMP180;53212;52.112;5.144;2024-01-11T12:24:29;103459.20;;;0.40
66403;BMP180;53212;52.112;5.144;2024-01-11T12:27:00;103456.80;;;0.48
66403;BMP180;53212;52.112;5.144;2024-01-11T12:29:29;103455.00;;;0.50
66403;BMP180;53212;52.112;5.144;2024-01-11T12:31:57;103457.60;;;0.50
66403;BMP180;53212;52.112;5.144;2024-01-11T12:34:25;103453.40;;;0.60
66403;BMP180;53212;52.112;5.144;2024-01-11T12:36:52;103451.00;;;0.60
66403;BMP180;53212;52.112;5.144;2024-01-11T12:39:19;103446.60;;;0.68
66403;BMP180;53212;52.112;5.144;2024-01-11T12:41:52;103455.40;;;0.70
66403;BMP180;53212;52.112;5.144;2024-01-11T12:44:20;103447.00;;;0.70
66403;BMP180;53212;52.112;5.144;2024-01-11T12:46:48;103446.00;;;0.80
66403;BMP180;53212;52.112;5.144;2024-01-11T12:49:15;103449.40;;;0.86
66403;BMP180;53212;52.112;5.144;2024-01-11T12:51:40;103440.40;;;0.90
66403;BMP180;53212;52.112;5.144;2024-01-11T12:54:12;103438.20;;;0.90
66403;BMP180;53212;52.112;5.144;2024-01-11T12:56:41;103434.20;;;0.94
66403;BMP180;53212;52.112;5.144;2024-01-11T12:59:08;103434.00;;;1.00
66403;BMP180;53212;52.112;5.144;2024-01-11T13:01:36;103432.60;;;1.00
66403;BMP180;53212;52.112;5.144;2024-01-11T13:04:02;103431.00;;;1.00
66403;BMP180;53212;52.112;5.144;2024-01-11T13:06:30;103421.00;;;1.00
66403;BMP180;53212;52.112;5.144;2024-01-11T13:08:56;103417.80;;;1.00
66403;BMP180;53212;52.112;5.144;2024-01-11T13:11:22;103416.20;;;1.00
66403;BMP180;53212;52.112;5.144;2024-01-11T13:13:50;103423.20;;;1.06
66403;BMP180;53212;52.112;5.144;2024-01-11T13:16:20;103427.60;;;1.10
66403;BMP180;53212;52.112;5.144;2024-01-11T13:18:48;103422.80;;;1.10
66403;BMP180;53212;52.112;5.144;2024-01-11T13:21:14;103431.60;;;1.10
66403;BMP180;53212;52.112;5.144;2024-01-11T13:23:39;103431.40;;;1.12
66403;BMP180;53212;52.112;5.144;2024-01-11T13:26:06;103434.00;;;1.20
66403;BMP180;53212;52.112;5.144;2024-01-11T13:28:33;103431.80;;;1.22
66403;BMP180;53212;52.112;5.144;2024-01-11T13:30:59;103429.40;;;1.30
66403;BMP180;53212;52.112;5.144;2024-01-11T13:33:25;103422.80;;;1.30
66403;BMP180;53212;52.112;5.144;2024-01-11T13:35:50;103420.60;;;1.30
66403;BMP180;53212;52.112;5.144;2024-01-11T13:38:16;103420.60;;;1.30
66403;BMP180;53212;52.112;5.144;2024-01-11T13:40:41;103420.20;;;1.30
66403;BMP180;53212;52.112;5.144;2024-01-11T13:43:09;103417.20;;;1.30
66403;BMP180;53212;52.112;5.144;2024-01-11T13:45:37;103412.60;;;1.32
66403;BMP180;53212;52.112;5.144;2024-01-11T13:48:04;103417.40;;;1.38
66403;BMP180;53212;52.112;5.144;2024-01-11T13:50:30;103409.00;;;1.40
66403;BMP180;53212;52.112;5.144;2024-01-11T13:52:56;103410.20;;;1.50
66403;BMP180;53212;52.112;5.144;2024-01-11T13:55:22;103410.00;;;1.52
66403;BMP180;53212;52.112;5.144;2024-01-11T13:57:49;103407.40;;;1.60